Time;durP1;ratioP1;P1;durP2;ratioP2;P2;SDS_P1;SDS_P2;PMS_P1;PMS_P2;Temp;Humidity;BMP_temperature;BMP_pressure;BME280_temperature;BME280_humidity;BME280_pressure;Samples;Min_cycle;Max_cycle;Signal;HPM_P1;HPM_P2
2021/12/20 00:03:51;;;;;;;0.65;0.30;;;6.70;99.90;;;;;;10340492;28;20050;-92
2021/12/20 00:08:54;;;;;;;0.80;0.40;;;6.70;99.90;;;;;;10336349;28;20050;-92
2021/12/20 00:13:56;;;;;;;0.65;0.30;;;6.80;99.90;;;;;;10371590;28;20061;-92
2021/12/20 00:18:58;;;;;;;1.60;0.47;;;6.80;99.90;;;;;;10346740;28;20038;-92
2021/12/20 00:24:00;;;;;;;1.48;0.57;;;6.80;99.90;;;;;;10348378;28;20053;-93
2021/12/20 00:29:03;;;;;;;1.90;0.47;;;6.80;99.90;;;;;;10337274;28;20045;-92
2021/12/20 00:34:11;;;;;;;2.67;0.40;;;6.80;99.90;;;;;;10331919;28;20045;-92
2021/12/20 00:44:59;;;;;;;4.85;0.90;;;6.80;99.90;;;;;;10399355;28;20120;-93
2021/12/20 00:50:01;;;;;;;2.13;0.20;;;6.80;99.90;;;;;;10375905;28;20052;-93
2021/12/20 00:55:03;;;;;;;3.63;0.40;;;6.80;99.90;;;;;;10358572;28;20059;-93
2021/12/20 01:00:07;;;;;;;2.97;0.60;;;6.80;99.90;;;;;;10395126;28;20104;-92
2021/12/20 01:05:10;;;;;;;0.85;0.40;;;6.80;99.90;;;;;;10389869;28;20483;-93
2021/12/20 01:10:12;;;;;;;0.47;0.38;;;6.80;99.90;;;;;;10359317;28;20132;-92
2021/12/20 01:15:17;;;;;;;5.18;0.60;;;6.80;99.90;;;;;;10383023;28;20061;-92
2021/12/20 01:20:20;;;;;;;2.28;0.30;;;6.70;99.90;;;;;;10392030;28;20100;-92
2021/12/20 01:25:23;;;;;;;2.92;0.88;;;6.80;99.90;;;;;;10376241;28;20045;-92
2021/12/20 01:30:27;;;;;;;0.82;0.30;;;6.70;99.90;;;;;;10390443;28;20046;-93
2021/12/20 01:35:43;;;;;;;1.92;0.60;;;6.70;99.90;;;;;;10377222;28;20144;-91
2021/12/20 01:40:45;;;;;;;2.53;0.35;;;6.70;99.60;;;;;;10375311;28;20049;-91
2021/12/20 01:45:50;;;;;;;9.00;0.52;;;6.70;99.40;;;;;;10379892;28;20050;-91
2021/12/20 01:56:10;;;;;;;3.80;0.40;;;6.70;99.30;;;;;;10390482;28;20068;-91
2021/12/20 02:06:29;;;;;;;2.50;0.40;;;6.70;98.10;;;;;;10407022;28;20049;-90
2021/12/20 02:11:32;;;;;;;1.42;0.32;;;6.70;98.30;;;;;;10370238;28;20101;-91
2021/12/20 02:16:35;;;;;;;3.10;0.50;;;6.60;98.10;;;;;;10385734;28;20109;-91
2021/12/20 02:21:37;;;;;;;5.55;0.40;;;6.60;97.80;;;;;;10372644;28;20381;-91
2021/12/20 02:26:39;;;;;;;1.63;0.30;;;6.60;97.80;;;;;;10369542;28;20495;-92
2021/12/20 02:37:19;;;;;;;3.25;0.30;;;6.60;97.70;;;;;;10382670;28;20045;-92
2021/12/20 02:42:27;;;;;;;1.50;0.50;;;6.60;98.00;;;;;;10369686;28;20041;-92
2021/12/20 02:47:29;;;;;;;;;;;6.60;98.20;;;;;;10385234;28;20507;-92
2021/12/20 02:52:31;;;;;;;2.53;0.75;;;6.50;98.20;;;;;;10377990;28;19925;-92
2021/12/20 02:57:35;;;;;;;5.22;0.40;;;6.50;98.20;;;;;;10371636;28;20526;-93
2021/12/20 03:02:37;;;;;;;2.20;0.43;;;6.50;98.20;;;;;;10376024;28;20033;-92
2021/12/20 03:07:48;;;;;;;1.70;0.55;;;6.50;98.40;;;;;;10381475;28;20053;-91
2021/12/20 03:12:50;;;;;;;2.95;0.50;;;6.50;98.90;;;;;;10360710;28;20052;-92
2021/12/20 03:17:54;;;;;;;5.03;0.50;;;6.50;99.40;;;;;;10380660;28;20054;-91
2021/12/20 03:23:04;;;;;;;3.53;0.60;;;6.50;99.90;;;;;;10363022;28;20401;-92
2021/12/20 03:28:06;;;;;;;4.65;0.50;;;6.50;99.90;;;;;;10378712;28;20399;-92
2021/12/20 03:33:07;;;;;;;7.55;0.95;;;6.50;99.90;;;;;;10365604;28;20038;-92
2021/12/20 03:38:09;;;;;;;2.85;0.60;;;6.40;99.90;;;;;;10367516;28;20052;-92
2021/12/20 03:43:13;;;;;;;6.07;0.70;;;6.50;99.90;;;;;;10375497;28;20064;-91
2021/12/20 03:48:15;;;;;;;2.97;0.40;;;6.50;99.90;;;;;;10364401;28;20057;-91
2021/12/20 03:53:17;;;;;;;8.40;0.35;;;6.40;99.90;;;;;;10386978;28;20045;-91
2021/12/20 03:58:19;;;;;;;8.07;0.57;;;6.30;99.90;;;;;;10390352;28;20064;-92
2021/12/20 04:03:20;;;;;;;3.20;0.40;;;6.40;99.50;;;;;;10392817;28;20045;-91
2021/12/20 04:08:23;;;;;;;5.00;0.50;;;6.40;99.50;;;;;;10368243;28;20048;-91
2021/12/20 04:13:43;;;;;;;6.90;0.60;;;6.40;99.90;;;;;;10389705;28;20049;-91
2021/12/20 04:18:45;;;;;;;6.85;0.65;;;6.30;99.90;;;;;;10386265;28;20064;-92
2021/12/20 04:23:47;;;;;;;8.40;1.05;;;6.30;99.90;;;;;;10389203;28;20099;-92
2021/12/20 04:28:49;;;;;;;5.95;0.45;;;6.20;99.90;;;;;;10401821;28;20162;-92
2021/12/20 04:33:51;;;;;;;8.70;0.47;;;6.20;99.90;;;;;;10350145;28;20046;-92
2021/12/20 04:38:53;;;;;;;8.65;0.70;;;6.20;99.90;;;;;;10364809;28;20037;-93
2021/12/20 04:43:56;;;;;;;5.85;0.50;;;6.10;99.90;;;;;;10366523;28;20068;-92
2021/12/20 04:48:58;;;;;;;7.55;1.15;;;6.10;99.90;;;;;;10388631;28;20053;-93
2021/12/20 04:54:00;;;;;;;9.35;0.60;;;6.00;99.90;;;;;;10382560;28;20492;-93
2021/12/20 04:59:15;;;;;;;7.43;0.85;;;6.00;99.90;;;;;;10354489;28;20099;-92
2021/12/20 05:04:17;;;;;;;11.32;0.65;;;5.90;99.90;;;;;;10370952;28;20068;-92
2021/12/20 05:09:20;;;;;;;11.23;1.38;;;5.80;99.90;;;;;;10366637;28;20050;-91
2021/12/20 05:14:21;;;;;;;8.25;0.45;;;5.70;99.90;;;;;;10365645;28;20041;-91
2021/12/20 05:19:23;;;;;;;6.53;0.60;;;5.60;99.90;;;;;;10383758;28;20132;-91
2021/12/20 05:24:25;;;;;;;2.70;0.43;;;5.50;99.90;;;;;;10377534;28;20042;-92
2021/12/20 05:29:27;;;;;;;6.93;0.68;;;5.50;99.90;;;;;;10366041;28;22656;-92
2021/12/20 05:34:29;;;;;;;5.93;0.77;;;5.40;99.90;;;;;;10382078;28;20099;-90
2021/12/20 05:39:31;;;;;;;9.13;1.13;;;5.30;99.90;;;;;;10365047;28;20081;-91
2021/12/20 05:44:33;;;;;;;13.15;0.93;;;5.30;99.90;;;;;;10361763;28;20057;-90
2021/12/20 05:49:35;;;;;;;7.93;0.98;;;5.20;99.90;;;;;;10361167;28;20047;-90
2021/12/20 05:54:37;;;;;;;6.82;0.50;;;5.10;99.90;;;;;;10361071;28;20045;-91
2021/12/20 05:59:39;;;;;;;13.18;0.60;;;5.10;99.90;;;;;;10381651;28;20390;-91
2021/12/20 06:04:41;;;;;;;6.10;0.57;;;4.90;99.90;;;;;;10382270;28;20753;-91
2021/12/20 06:09:42;;;;;;;9.00;0.60;;;4.80;99.90;;;;;;10381012;28;20144;-91
2021/12/20 06:14:54;;;;;;;8.00;0.82;;;4.60;99.90;;;;;;10364249;28;20069;-92
2021/12/20 06:19:56;;;;;;;9.50;0.65;;;4.50;99.90;;;;;;10331881;28;20084;-91
2021/12/20 06:25:04;;;;;;;11.48;1.05;;;4.30;99.90;;;;;;10376808;28;20180;-91
2021/12/20 06:30:10;;;;;;;9.75;0.80;;;4.20;99.90;;;;;;10349965;28;20045;-90
2021/12/20 06:35:13;;;;;;;8.80;0.80;;;4.10;99.90;;;;;;10370459;28;20049;-89
2021/12/20 06:40:15;;;;;;;7.25;1.02;;;4.00;99.90;;;;;;10375564;28;20048;-89
2021/12/20 06:45:16;;;;;;;7.53;0.80;;;3.90;99.90;;;;;;10373770;28;20081;-89
2021/12/20 06:50:18;;;;;;;8.35;0.77;;;3.80;99.90;;;;;;10370656;28;20052;-89
2021/12/20 06:55:20;;;;;;;7.22;0.85;;;3.80;99.90;;;;;;10355461;28;20045;-89
2021/12/20 07:00:23;;;;;;;14.77;1.10;;;3.70;99.90;;;;;;10370067;28;20053;-90
2021/12/20 07:05:25;;;;;;;14.52;1.40;;;3.60;99.90;;;;;;10353771;28;20044;-90
2021/12/20 07:10:27;;;;;;;17.40;2.05;;;3.50;99.90;;;;;;10344193;28;20057;-89
2021/12/20 07:15:31;;;;;;;20.52;4.07;;;3.50;99.90;;;;;;10355423;28;20152;-89
2021/12/20 07:20:33;;;;;;;11.95;1.33;;;3.40;99.90;;;;;;10375383;28;20776;-90
2021/12/20 07:25:35;;;;;;;12.68;0.70;;;3.30;99.90;;;;;;10369182;28;20065;-89
2021/12/20 07:30:37;;;;;;;9.55;1.10;;;3.20;99.90;;;;;;10380763;28;20124;-89
2021/12/20 07:35:41;;;;;;;17.58;2.55;;;3.10;99.90;;;;;;10372416;28;20053;-89
2021/12/20 07:40:48;;;;;;;8.88;0.90;;;3.10;99.90;;;;;;10358473;28;20590;-89
2021/12/20 07:45:50;;;;;;;4.32;0.85;;;3.00;99.90;;;;;;10365103;28;20050;-89
2021/12/20 07:50:52;;;;;;;3.22;0.70;;;3.00;99.90;;;;;;10358820;28;20056;-89
2021/12/20 07:55:54;;;;;;;18.45;0.93;;;2.90;99.90;;;;;;10382291;28;20053;-89
2021/12/20 08:00:58;;;;;;;8.18;1.00;;;2.90;99.90;;;;;;10373057;28;20049;-90
2021/12/20 08:06:09;;;;;;;12.75;0.98;;;2.90;99.90;;;;;;10365854;28;20076;-90
2021/12/20 08:11:11;;;;;;;6.55;1.13;;;2.80;99.90;;;;;;10361590;28;20050;-90
2021/12/20 08:16:16;;;;;;;9.75;0.93;;;2.90;99.90;;;;;;10361194;28;20045;-89
2021/12/20 08:21:18;;;;;;;8.52;0.80;;;2.90;99.90;;;;;;10351607;28;20050;-90
2021/12/20 08:26:23;;;;;;;7.78;0.90;;;2.90;99.90;;;;;;10356527;28;20045;-90
2021/12/20 08:31:24;;;;;;;12.10;1.08;;;2.90;99.90;;;;;;10360199;28;20053;-90
2021/12/20 08:36:26;;;;;;;8.73;0.70;;;2.90;99.90;;;;;;10357368;28;20060;-90
2021/12/20 08:41:28;;;;;;;7.35;0.82;;;2.90;99.90;;;;;;10357710;28;20053;-90
2021/12/20 08:46:30;;;;;;;8.60;1.02;;;3.00;99.90;;;;;;10360366;28;20061;-90
2021/12/20 08:51:39;;;;;;;7.38;0.95;;;3.00;99.90;;;;;;10352275;28;20061;-90
2021/12/20 08:56:41;;;;;;;5.72;0.52;;;3.10;99.90;;;;;;10372007;28;20260;-90
2021/12/20 09:01:43;;;;;;;10.75;0.98;;;3.10;99.90;;;;;;10368646;28;20064;-90
2021/12/20 09:06:45;;;;;;;9.52;0.68;;;3.20;99.90;;;;;;10371163;28;20100;-89
2021/12/20 09:11:47;;;;;;;5.43;0.55;;;3.20;99.90;;;;;;10356244;28;20045;-90
2021/12/20 09:16:49;;;;;;;4.70;0.40;;;3.30;99.90;;;;;;10356482;28;20496;-90
2021/12/20 09:21:51;;;;;;;7.95;0.70;;;3.40;99.90;;;;;;10381994;28;20618;-91
2021/12/20 09:26:53;;;;;;;14.93;0.75;;;3.40;99.90;;;;;;10379518;28;20144;-90
2021/12/20 09:31:56;;;;;;;10.13;0.80;;;3.50;99.90;;;;;;10368370;28;20049;-91
2021/12/20 09:37:04;;;;;;;14.93;1.00;;;3.60;99.90;;;;;;10377599;28;25902;-90
2021/12/20 09:42:09;;;;;;;6.93;0.73;;;3.60;99.90;;;;;;10361578;28;20049;-91
2021/12/20 09:47:11;;;;;;;4.78;0.40;;;3.70;99.90;;;;;;10392178;28;20545;-90
2021/12/20 09:52:13;;;;;;;12.18;1.80;;;3.80;99.90;;;;;;10366991;28;20136;-90
2021/12/20 09:57:18;;;;;;;10.35;1.40;;;3.80;99.90;;;;;;10355827;28;20487;-90
2021/12/20 10:02:21;;;;;;;14.63;0.65;;;3.90;99.90;;;;;;10322997;28;20057;-90
2021/12/20 10:07:25;;;;;;;13.10;0.80;;;3.90;99.90;;;;;;10372109;28;20534;-90
2021/12/20 10:12:27;;;;;;;10.52;0.88;;;3.90;99.90;;;;;;10383047;28;20052;-90
2021/12/20 10:17:54;;;;;;;5.53;0.70;;;4.00;99.90;;;;;;10357990;28;20072;-90
2021/12/20 10:23:20;;;;;;;6.73;0.93;;;4.00;99.90;;;;;;10340211;28;20425;-90
2021/12/20 10:28:25;;;;;;;9.85;1.02;;;4.00;99.90;;;;;;10387892;28;20500;-90
2021/12/20 10:33:28;;;;;;;6.68;1.30;;;4.10;99.90;;;;;;10366409;28;20057;-89
2021/12/20 10:38:33;;;;;;;7.60;0.57;;;4.20;99.90;;;;;;10352805;28;20054;-89
2021/12/20 10:43:50;;;;;;;5.75;0.60;;;4.20;99.90;;;;;;10346437;28;20054;-89
2021/12/20 10:49:14;;;;;;;9.25;0.95;;;4.30;99.90;;;;;;10332407;28;20081;-89
2021/12/20 10:54:20;;;;;;;7.43;0.88;;;4.30;99.90;;;;;;10345440;28;20049;-89
2021/12/20 10:59:24;;;;;;;7.95;0.68;;;4.30;99.90;;;;;;10323201;28;20045;-89
2021/12/20 11:04:35;;;;;;;9.10;0.70;;;4.30;99.90;;;;;;10326900;28;20065;-89
2021/12/20 11:09:42;;;;;;;6.95;0.70;;;4.40;99.90;;;;;;10332851;28;20060;-89
2021/12/20 11:14:47;;;;;;;5.53;0.60;;;4.40;99.90;;;;;;10330577;28;20049;-89
2021/12/20 11:19:52;;;;;;;3.90;1.42;;;4.40;99.90;;;;;;10307074;28;20045;-89
2021/12/20 11:25:04;;;;;;;10.32;0.65;;;4.50;99.90;;;;;;10314281;28;20054;-89
2021/12/20 11:30:14;;;;;;;8.05;0.60;;;4.50;99.90;;;;;;10341771;28;20069;-90
2021/12/20 11:35:20;;;;;;;6.88;0.45;;;4.60;99.70;;;;;;10320648;28;20053;-90
2021/12/20 11:40:22;;;;;;;8.02;0.77;;;4.60;99.90;;;;;;10369735;28;20057;-89
2021/12/20 11:45:25;;;;;;;10.80;0.82;;;4.60;98.40;;;;;;10359958;28;20071;-90
2021/12/20 11:50:36;;;;;;;4.07;0.65;;;4.70;97.80;;;;;;10379040;28;20072;-90
2021/12/20 11:55:46;;;;;;;4.85;0.47;;;4.70;98.90;;;;;;10362352;28;20069;-90
2021/12/20 12:01:06;;;;;;;7.32;1.70;;;4.70;96.60;;;;;;10370593;28;20053;-90
2021/12/20 12:06:11;;;;;;;7.75;0.30;;;4.80;95.10;;;;;;10377627;28;22091;-90
2021/12/20 12:11:13;;;;;;;4.57;0.50;;;4.80;92.00;;;;;;10373751;28;20057;-89
2021/12/20 12:16:32;;;;;;;12.65;0.50;;;4.80;91.70;;;;;;10375301;28;20080;-90
2021/12/20 12:21:36;;;;;;;3.90;0.40;;;4.90;91.10;;;;;;10372604;28;20053;-90
2021/12/20 12:26:50;;;;;;;7.72;1.05;;;4.90;89.70;;;;;;10374337;28;20057;-90
2021/12/20 12:31:58;;;;;;;4.45;0.30;;;4.90;90.00;;;;;;10329817;28;20089;-90
2021/12/20 12:37:19;;;;;;;5.07;0.52;;;4.90;89.80;;;;;;10364862;28;20049;-89
2021/12/20 12:42:45;;;;;;;3.60;0.40;;;5.20;91.70;;;;;;10390871;28;20053;-90
2021/12/20 12:47:57;;;;;;;5.22;0.45;;;5.10;89.20;;;;;;10377422;28;20045;-89
2021/12/20 12:52:59;;;;;;;3.45;0.47;;;5.10;90.10;;;;;;10372643;28;20407;-90
2021/12/20 12:58:20;;;;;;;4.82;0.65;;;5.10;90.10;;;;;;10343161;28;20076;-90
2021/12/20 13:03:27;;;;;;;6.40;0.40;;;5.00;90.30;;;;;;10343598;28;20046;-90
2021/12/20 13:08:29;;;;;;;6.25;0.57;;;5.00;88.20;;;;;;10370150;28;20073;-90
2021/12/20 13:13:41;;;;;;;8.40;0.77;;;5.00;85.80;;;;;;10339201;28;20053;-90
2021/12/20 13:18:45;;;;;;;6.50;0.20;;;5.00;87.00;;;;;;10339852;28;20217;-89
2021/12/20 13:23:49;;;;;;;5.20;0.50;;;4.90;86.70;;;;;;10358369;28;20148;-92
2021/12/20 13:28:57;;;;;;;1.55;0.30;;;4.90;85.70;;;;;;10358229;28;20049;-91
2021/12/20 13:34:04;;;;;;;5.55;0.47;;;4.90;87.00;;;;;;10371481;28;20794;-91
2021/12/20 13:39:11;;;;;;;4.70;0.52;;;4.90;86.90;;;;;;10360086;28;20053;-91
2021/12/20 13:44:19;;;;;;;4.63;0.32;;;4.80;85.60;;;;;;10320808;28;20064;-92
2021/12/20 13:49:21;;;;;;;4.68;0.40;;;4.80;87.40;;;;;;10356364;28;20050;-92
2021/12/20 13:54:29;;;;;;;7.28;0.55;;;4.80;87.80;;;;;;10375984;28;20053;-90
2021/12/20 13:59:55;;;;;;;2.78;0.40;;;4.80;87.80;;;;;;10371533;28;20041;-90
2021/12/20 14:05:19;;;;;;;4.60;0.30;;;4.70;89.10;;;;;;10381438;28;20053;-91
2021/12/20 14:10:27;;;;;;;2.63;0.57;;;4.70;90.00;;;;;;10366617;28;20045;-90
2021/12/20 14:15:37;;;;;;;2.22;0.40;;;4.60;89.00;;;;;;10369373;28;20053;-91
2021/12/20 14:20:42;;;;;;;5.65;1.00;;;4.60;89.80;;;;;;10367256;28;20042;-90
2021/12/20 14:25:51;;;;;;;4.13;0.52;;;4.60;90.40;;;;;;10372949;28;20073;-90
2021/12/20 14:31:02;;;;;;;2.85;0.43;;;4.50;91.30;;;;;;10379007;28;20505;-92
2021/12/20 14:36:14;;;;;;;4.03;0.30;;;4.50;91.60;;;;;;10368454;28;20730;-92
2021/12/20 14:41:36;;;;;;;3.65;0.63;;;4.40;91.50;;;;;;10371919;28;21064;-92
2021/12/20 14:47:00;;;;;;;3.65;0.40;;;4.30;92.00;;;;;;10350887;28;20045;-92
2021/12/20 14:52:20;;;;;;;3.35;0.20;;;4.20;92.40;;;;;;10367552;28;20494;-92
2021/12/20 14:57:34;;;;;;;6.75;0.40;;;4.10;92.50;;;;;;10378052;28;20049;-92
2021/12/20 15:02:39;;;;;;;8.65;0.40;;;4.10;92.20;;;;;;10356552;28;20955;-92
2021/12/20 15:07:42;;;;;;;7.93;0.50;;;4.00;92.00;;;;;;10359312;28;20084;-90
2021/12/20 15:12:44;;;;;;;4.30;0.60;;;3.90;91.70;;;;;;10369640;28;20057;-93
2021/12/20 15:17:46;;;;;;;3.83;0.77;;;3.80;91.10;;;;;;10342622;28;20045;-91
2021/12/20 15:22:48;;;;;;;3.05;0.52;;;3.70;91.20;;;;;;10341179;28;20546;-91
2021/12/20 15:27:50;;;;;;;5.43;0.20;;;3.60;90.90;;;;;;10364055;28;20061;-91
2021/12/20 15:32:53;;;;;;;2.63;0.30;;;3.50;91.20;;;;;;10361914;28;20053;-91
2021/12/20 15:38:23;;;;;;;6.22;0.30;;;3.40;91.40;;;;;;10337376;28;20399;-90
2021/12/20 15:43:26;;;;;;;3.85;0.50;;;3.30;91.80;;;;;;10362687;28;20072;-90
2021/12/20 15:48:32;;;;;;;4.32;0.60;;;3.20;92.30;;;;;;10389189;28;20057;-90
2021/12/20 15:53:48;;;;;;;11.13;0.60;;;3.10;92.20;;;;;;10370264;28;20500;-90
2021/12/20 15:58:55;;;;;;;4.38;0.63;;;2.90;92.60;;;;;;10365667;28;20084;-90
2021/12/20 16:03:59;;;;;;;4.88;0.63;;;2.80;93.10;;;;;;10360327;28;20063;-90
2021/12/20 16:09:02;;;;;;;3.95;0.70;;;2.70;93.40;;;;;;10356599;28;20393;-91
2021/12/20 16:14:04;;;;;;;7.78;0.77;;;2.60;93.90;;;;;;10345621;28;20489;-90
2021/12/20 16:19:07;;;;;;;4.38;1.40;;;2.50;94.60;;;;;;10366949;28;20567;-90
2021/12/20 16:24:08;;;;;;;7.22;2.13;;;2.40;95.00;;;;;;10367124;28;20105;-90
2021/12/20 16:29:10;;;;;;;9.35;2.47;;;2.30;95.50;;;;;;10369974;28;20134;-91
2021/12/20 16:34:12;;;;;;;3.15;1.20;;;2.20;96.40;;;;;;10350109;28;20389;-90
2021/12/20 16:39:17;;;;;;;3.80;0.80;;;2.00;97.10;;;;;;10269955;28;20050;-91
2021/12/20 16:44:25;;;;;;;5.20;1.08;;;1.90;98.90;;;;;;10289319;28;20058;-89
2021/12/20 16:49:31;;;;;;;11.27;1.17;;;1.80;99.50;;;;;;10272426;28;20137;-90
2021/12/20 16:54:46;;;;;;;14.38;3.67;;;1.60;99.90;;;;;;10313424;28;20050;-91
2021/12/20 16:59:48;;;;;;;8.25;3.20;;;1.50;99.90;;;;;;10300727;28;20046;-91
2021/12/20 17:05:08;;;;;;;13.05;3.42;;;1.40;99.90;;;;;;10307025;28;21913;-91
2021/12/20 17:10:10;;;;;;;13.18;2.47;;;1.30;99.90;;;;;;10290474;28;20105;-91
2021/12/20 17:15:12;;;;;;;9.02;1.42;;;1.20;99.90;;;;;;10200738;28;20129;-92
2021/12/20 17:20:27;;;;;;;6.07;1.85;;;1.10;99.90;;;;;;10026077;28;20142;-92
2021/12/20 17:25:31;;;;;;;5.45;0.90;;;1.00;99.90;;;;;;10231464;28;20050;-92
2021/12/20 17:30:43;;;;;;;17.88;3.13;;;0.90;99.90;;;;;;9991876;28;20429;-92
2021/12/20 17:35:52;;;;;;;21.70;4.35;;;0.80;99.90;;;;;;10077867;28;20049;-93
2021/12/20 17:41:01;;;;;;;13.73;3.60;;;0.70;99.90;;;;;;10017607;28;20043;-93
2021/12/20 17:47:20;;;;;;;14.82;4.03;;;0.60;99.90;;;;;;10094271;28;20044;-94
2021/12/20 17:52:55;;;;;;;13.63;5.25;;;0.50;99.90;;;;;;10076452;28;20609;-92
2021/12/20 17:58:32;;;;;;;24.00;7.72;;;0.50;99.90;;;;;;9846718;28;20059;-92
2021/12/20 18:03:42;;;;;;;22.38;7.00;;;0.40;99.90;;;;;;9933747;29;20688;-93
2021/12/20 18:09:18;;;;;;;10.82;2.38;;;0.40;99.90;;;;;;9851215;28;20137;-92
2021/12/20 18:14:28;;;;;;;6.03;1.05;;;0.40;99.90;;;;;;9907778;28;20055;-93
2021/12/20 18:19:46;;;;;;;8.75;3.42;;;0.50;99.90;;;;;;10055725;28;20043;-92
2021/12/20 18:25:10;;;;;;;6.53;2.70;;;0.60;99.90;;;;;;9966694;28;20122;-93
2021/12/20 18:30:56;;;;;;;20.77;5.88;;;0.50;99.90;;;;;;10072393;28;20050;-93
2021/12/20 18:42:30;;;;;;;10.52;2.50;;;0.20;99.90;;;;;;10097622;28;21500;-93
2021/12/20 18:47:34;;;;;;;14.15;4.50;;;0.10;99.90;;;;;;10115608;28;20078;-92
2021/12/20 18:52:39;;;;;;;10.03;5.70;;;0.00;99.90;;;;;;10113379;28;20046;-93
2021/12/20 18:58:00;;;;;;;6.53;2.80;;;-0.10;99.90;;;;;;10230902;28;21399;-93
2021/12/20 19:03:06;;;;;;;7.38;2.15;;;-0.20;99.90;;;;;;10269184;28;20051;-93
2021/12/20 19:08:32;;;;;;;12.52;1.70;;;-0.20;99.90;;;;;;10218405;28;20058;-93
2021/12/20 19:14:04;;;;;;;4.70;1.17;;;-0.20;99.90;;;;;;10162773;28;20052;-93
2021/12/20 19:19:11;;;;;;;7.95;1.95;;;-0.30;99.90;;;;;;10114836;28;20051;-93
2021/12/20 19:24:16;;;;;;;7.38;2.40;;;-0.30;99.90;;;;;;9957764;28;20050;-93
2021/12/20 19:29:50;;;;;;;6.57;3.42;;;-0.30;99.90;;;;;;9990811;28;20078;-93
2021/12/20 19:35:13;;;;;;;11.57;1.60;;;-0.40;99.90;;;;;;10125758;28;20050;-93
2021/12/20 19:40:35;;;;;;;12.40;2.53;;;-0.50;99.90;;;;;;10074607;28;20055;-93
2021/12/20 19:46:23;;;;;;;4.30;1.55;;;-0.50;99.90;;;;;;10077396;28;20113;-94
2021/12/20 19:51:32;;;;;;;5.88;1.25;;;-0.60;99.90;;;;;;10023650;28;20072;-94
2021/12/20 19:56:53;;;;;;;6.75;2.17;;;-0.60;99.90;;;;;;9972623;28;20058;-93
2021/12/20 20:02:27;;;;;;;10.40;1.40;;;-0.60;99.90;;;;;;9934634;28;20047;-93
2021/12/20 20:07:31;;;;;;;7.90;1.77;;;-0.60;99.90;;;;;;10007627;28;20133;-93
2021/12/20 20:13:16;;;;;;;6.95;2.08;;;-0.60;99.90;;;;;;10047864;28;20056;-94
2021/12/20 20:18:34;;;;;;;10.98;2.75;;;-0.60;99.90;;;;;;10112576;28;20061;-92
2021/12/20 20:23:41;;;;;;;3.97;1.33;;;-0.60;99.90;;;;;;10063945;28;20059;-93
2021/12/20 20:29:05;;;;;;;2.67;1.25;;;-0.60;99.90;;;;;;9992767;28;20425;-93
2021/12/20 20:34:13;;;;;;;6.57;1.27;;;-0.70;99.90;;;;;;9950983;28;20050;-92
2021/12/20 20:39:22;;;;;;;2.35;1.23;;;-0.80;99.90;;;;;;10064042;28;20429;-91
2021/12/20 20:44:27;;;;;;;6.18;1.20;;;-0.80;99.90;;;;;;10210908;28;20073;-90
2021/12/20 20:49:34;;;;;;;7.78;1.58;;;-0.90;99.90;;;;;;10115232;28;20055;-91
2021/12/20 20:54:37;;;;;;;6.45;2.33;;;-1.00;99.90;;;;;;10099334;28;20057;-91
2021/12/20 20:59:42;;;;;;;5.95;2.25;;;-1.00;99.90;;;;;;10061493;28;20054;-91
2021/12/20 21:04:53;;;;;;;5.70;2.05;;;-1.10;99.90;;;;;;10132558;28;20594;-92
2021/12/20 21:10:02;;;;;;;7.05;1.88;;;-1.20;99.90;;;;;;10155764;28;21089;-91
2021/12/20 21:15:09;;;;;;;8.05;1.70;;;-1.20;99.90;;;;;;10149908;28;20065;-91
2021/12/20 21:20:14;;;;;;;10.05;2.20;;;-1.30;99.90;;;;;;10204273;28;20706;-92
2021/12/20 21:25:21;;;;;;;10.20;2.58;;;-1.30;99.90;;;;;;10166042;28;20054;-91
2021/12/20 21:30:35;;;;;;;11.32;4.53;;;-1.20;99.90;;;;;;10080927;28;20052;-92
2021/12/20 21:36:02;;;;;;;13.20;3.75;;;-1.30;99.90;;;;;;10089745;28;20146;-91
2021/12/20 21:41:05;;;;;;;13.52;4.07;;;-1.40;99.90;;;;;;10248808;28;20164;-91
2021/12/20 21:46:14;;;;;;;10.98;3.42;;;-1.40;99.90;;;;;;10053266;28;20063;-91
2021/12/20 21:51:23;;;;;;;9.05;3.15;;;-1.40;99.90;;;;;;10108028;28;20046;-91
2021/12/20 21:56:25;;;;;;;6.20;2.13;;;-1.50;99.90;;;;;;10200743;28;20133;-91
2021/12/20 22:01:28;;;;;;;5.63;1.65;;;-1.50;99.90;;;;;;10247370;28;20114;-92
2021/12/20 22:06:32;;;;;;;7.40;2.50;;;-1.50;99.90;;;;;;10306929;28;20060;-93
2021/12/20 22:11:35;;;;;;;5.55;1.40;;;-1.50;99.90;;;;;;10259277;28;20074;-92
2021/12/20 22:16:38;;;;;;;6.75;2.13;;;-1.50;99.90;;;;;;10261422;28;20533;-93
2021/12/20 22:21:41;;;;;;;6.53;1.77;;;-1.50;99.90;;;;;;10219732;28;20101;-93
2021/12/20 22:26:44;;;;;;;10.25;2.38;;;-1.50;99.90;;;;;;10226791;28;20046;-93
2021/12/20 22:31:54;;;;;;;12.93;3.88;;;-1.50;99.90;;;;;;10204382;28;20047;-92
2021/12/20 22:37:00;;;;;;;11.48;1.85;;;-1.50;99.90;;;;;;10054752;28;20413;-92
2021/12/20 22:42:05;;;;;;;7.70;2.25;;;-1.50;99.90;;;;;;10163820;28;20081;-93
2021/12/20 22:47:09;;;;;;;14.93;3.28;;;-1.50;99.90;;;;;;10218887;28;20559;-93
2021/12/20 22:52:29;;;;;;;9.75;2.75;;;-1.50;99.90;;;;;;10295870;28;20186;-93
2021/12/20 22:57:35;;;;;;;6.68;1.20;;;-1.50;99.90;;;;;;10307627;28;20049;-93
2021/12/20 23:02:42;;;;;;;5.93;1.33;;;-1.60;99.90;;;;;;10332066;28;20108;-93
2021/12/20 23:07:47;;;;;;;5.97;1.58;;;-1.60;99.90;;;;;;10360434;28;20053;-94
2021/12/20 23:17:52;;;;;;;8.20;1.50;;;-1.70;99.90;;;;;;10357951;28;20472;-93
2021/12/20 23:23:03;;;;;;;5.28;1.60;;;-1.70;99.90;;;;;;10361803;28;20468;-93
2021/12/20 23:28:09;;;;;;;6.43;1.70;;;-1.70;99.90;;;;;;10371270;28;20523;-92
2021/12/20 23:33:12;;;;;;;6.32;1.38;;;-1.80;99.90;;;;;;10354625;28;20447;-92
2021/12/20 23:38:21;;;;;;;9.13;1.45;;;-1.80;99.90;;;;;;10375989;28;20507;-92
2021/12/20 23:43:25;;;;;;;4.35;1.88;;;-1.80;99.90;;;;;;10357497;28;20045;-92
2021/12/20 23:48:28;;;;;;;5.22;1.70;;;-1.80;99.90;;;;;;10327428;28;20438;-92
2021/12/20 23:53:30;;;;;;;8.18;1.80;;;-1.80;99.90;;;;;;10358421;28;20056;-92
2021/12/20 23:58:33;;;;;;;4.78;1.20;;;-1.80;99.90;;;;;;10326992;28;20763;-93
